createdAt,value
2018-11-12T00:00:11.612Z,48.55
2018-11-12T00:01:11.684Z,48.53
2018-11-12T00:02:11.588Z,48.55
2018-11-12T00:03:11.581Z,48.66
2018-11-12T00:04:11.583Z,48.86
2018-11-12T00:05:11.573Z,49.05
2018-11-12T00:06:11.545Z,48.55
2018-11-12T00:07:11.546Z,48.75
2018-11-12T00:08:11.519Z,48.66
2018-11-12T00:09:11.548Z,48.35
2018-11-12T00:10:11.496Z,48.25
2018-11-12T00:11:11.485Z,48.25
2018-11-12T00:12:11.486Z,48.25
2018-11-12T00:13:11.486Z,48.05
2018-11-12T00:14:11.466Z,48.55
2018-11-12T00:15:11.441Z,48.05
2018-11-12T00:16:11.437Z,48.25
2018-11-12T00:17:11.419Z,48.46
2018-11-12T00:18:11.428Z,48.35
2018-11-12T00:19:11.416Z,48.46
2018-11-12T00:20:11.437Z,48.55
2018-11-12T00:21:11.385Z,48.86
2018-11-12T00:22:11.380Z,48.75
2018-11-12T00:23:11.356Z,48.86
2018-11-12T00:24:11.363Z,48.86
2018-11-12T00:25:11.327Z,48.86
2018-11-12T00:26:11.331Z,48.75
2018-11-12T00:27:11.304Z,48.66
2018-11-12T00:28:11.294Z,48.75
2018-11-12T00:29:11.318Z,48.86
2018-11-12T00:30:11.271Z,48.86
2018-11-12T00:31:11.316Z,48.75
2018-11-12T00:32:11.250Z,48.55
2018-11-12T00:33:11.242Z,48.86
2018-11-12T00:34:11.253Z,48.96
2018-11-12T00:35:11.225Z,48.96
2018-11-12T00:36:11.208Z,48.66
2018-11-12T00:37:11.210Z,48.66
2018-11-12T00:38:11.193Z,48.75
2018-11-12T00:39:11.185Z,48.96
2018-11-12T00:40:11.170Z,48.55
2018-11-12T00:41:11.166Z,48.96
2018-11-12T00:42:11.142Z,49.05
2018-11-12T00:43:11.145Z,49.05
2018-11-12T00:44:11.134Z,48.96
2018-11-12T00:45:11.121Z,48.96
2018-11-12T00:46:11.090Z,49.05
2018-11-12T00:47:11.083Z,48.78
2018-11-12T00:48:11.100Z,49.36
2018-11-12T00:49:11.068Z,49.26
2018-11-12T00:50:11.094Z,49.28
2018-11-12T00:51:11.061Z,49.28
2018-11-12T00:52:11.034Z,49.18
2018-11-12T00:53:11.018Z,49.26
2018-11-12T00:54:11.015Z,49.16
2018-11-12T00:55:11.036Z,49.18
2018-11-12T00:56:10.977Z,49.28
2018-11-12T00:57:10.965Z,49.38
2018-11-12T00:58:10.960Z,49.38
2018-11-12T00:59:10.982Z,48.98
2018-11-12T01:00:10.958Z,49.08
2018-11-12T01:01:10.949Z,49.28
2018-11-12T01:02:10.925Z,49.28
2018-11-12T01:03:10.898Z,49.36
2018-11-12T01:04:10.937Z,49.58
2018-11-12T01:05:10.900Z,49.38
2018-11-12T01:06:10.864Z,49.38
2018-11-12T01:07:10.853Z,49.38
2018-11-12T01:08:10.844Z,49.38
2018-11-12T01:09:10.831Z,49.48
2018-11-12T01:10:10.846Z,49.78
2018-11-12T01:11:10.815Z,49.58
2018-11-12T01:12:10.818Z,49.68
2018-11-12T01:13:10.792Z,49.76
2018-11-12T01:14:10.781Z,49.78
2018-11-12T01:15:10.789Z,49.68
2018-11-12T01:16:10.794Z,49.68
2018-11-12T01:17:10.751Z,49.48
2018-11-12T01:18:10.743Z,49.28
2018-11-12T01:19:10.717Z,49.18
2018-11-12T01:20:10.735Z,49.28
2018-11-12T01:21:10.692Z,49.28
2018-11-12T01:22:10.685Z,49.28
2018-11-12T01:23:10.716Z,49.28
2018-11-12T01:24:10.689Z,49.58
2018-11-12T01:25:10.655Z,49.48
2018-11-12T01:26:10.636Z,49.68
2018-11-12T01:27:10.632Z,49.58
2018-11-12T01:28:10.632Z,49.68
2018-11-12T01:29:10.605Z,49.48
2018-11-12T01:30:10.603Z,49.68
2018-11-12T01:31:10.689Z,49.68
2018-11-12T01:32:10.568Z,49.38
2018-11-12T01:33:10.557Z,49.68
2018-11-12T01:34:10.555Z,49.38
2018-11-12T01:35:10.544Z,49.68
2018-11-12T01:36:10.525Z,49.48
2018-11-12T01:37:10.512Z,49.48
2018-11-12T01:38:10.501Z,49.48
2018-11-12T01:39:10.490Z,49.66
2018-11-12T01:40:10.490Z,49.66
2018-11-12T01:41:10.477Z,49.38
2018-11-12T01:42:10.542Z,49.58
2018-11-12T01:43:10.459Z,49.38
2018-11-12T01:44:10.446Z,49.38
2018-11-12T01:45:10.430Z,49.58
2018-11-12T01:46:10.431Z,49.68
2018-11-12T01:47:10.425Z,50.18
2018-11-12T01:48:10.398Z,49.88
2018-11-12T01:49:10.407Z,50.59
2018-11-12T01:50:10.385Z,49.88
2018-11-12T01:51:10.360Z,50.68
2018-11-12T01:52:10.355Z,50.09
2018-11-12T01:53:10.362Z,49.98
2018-11-12T01:54:10.337Z,50.18
2018-11-12T01:55:10.341Z,50.09
2018-11-12T01:56:10.310Z,50.09
2018-11-12T01:57:10.291Z,50.29
2018-11-12T01:58:10.290Z,50.29
2018-11-12T01:59:10.301Z,50.29
2018-11-12T02:00:10.275Z,50.29
2018-11-12T02:01:10.319Z,50.38
2018-11-12T02:02:10.240Z,50.09
2018-11-12T02:03:10.223Z,50.38
2018-11-12T02:04:10.222Z,50.79
2018-11-12T02:05:10.197Z,50.89
2018-11-12T02:06:10.196Z,50.79
2018-11-12T02:07:10.192Z,50.68
2018-11-12T02:08:10.161Z,50.59
2018-11-12T02:09:10.258Z,50.59
2018-11-12T02:10:10.143Z,50.68
2018-11-12T02:11:10.136Z,50.79
2018-11-12T02:12:10.120Z,50.89
2018-11-12T02:13:10.113Z,50.59
2018-11-12T02:14:10.101Z,50.79
2018-11-12T02:15:10.088Z,50.89
2018-11-12T02:16:10.090Z,50.89
2018-11-12T02:17:10.067Z,50.59
2018-11-12T02:18:10.048Z,50.59
2018-11-12T02:19:10.044Z,50.68
2018-11-12T02:20:10.028Z,50.59
2018-11-12T02:21:10.041Z,51.29
2018-11-12T02:22:10.016Z,51.29
2018-11-12T02:23:10.015Z,50.99
2018-11-12T02:24:09.979Z,50.99
2018-11-12T02:25:09.982Z,50.68
2018-11-12T02:26:09.970Z,50.89
2018-11-12T02:27:09.947Z,51.19
2018-11-12T02:28:09.943Z,51.29
2018-11-12T02:29:09.959Z,50.68
2018-11-12T02:30:09.943Z,50.99
2018-11-12T02:31:10.159Z,50.48
2018-11-12T02:32:09.892Z,50.59
2018-11-12T02:33:09.887Z,50.38
2018-11-12T02:34:09.867Z,50.59
2018-11-12T02:35:09.863Z,50.59
2018-11-12T02:36:09.868Z,50.68
2018-11-12T02:37:09.852Z,50.68
2018-11-12T02:38:09.851Z,50.89
2018-11-12T02:39:09.810Z,50.89
2018-11-12T02:40:09.815Z,50.99
2018-11-12T02:41:09.810Z,51.29
2018-11-12T02:42:09.776Z,51.39
2018-11-12T02:43:09.768Z,51.39
2018-11-12T02:44:09.767Z,51.09
2018-11-12T02:45:09.772Z,50.79
2018-11-12T02:46:09.761Z,51.29
2018-11-12T02:47:09.720Z,50.79
2018-11-12T02:48:09.725Z,50.68
2018-11-12T02:49:09.720Z,50.79
2018-11-12T02:50:09.686Z,50.56
2018-11-12T02:51:09.683Z,50.68
2018-11-12T02:52:09.677Z,50.76
2018-11-12T02:53:09.653Z,50.38
2018-11-12T02:54:09.653Z,50.66
2018-11-12T02:55:09.635Z,50.79
2018-11-12T02:56:09.644Z,50.59
2018-11-12T02:57:09.621Z,50.76
2018-11-12T02:58:09.600Z,50.86
2018-11-12T02:59:09.589Z,50.76
2018-11-12T03:00:09.591Z,50.46
2018-11-12T03:01:09.589Z,50.96
2018-11-12T03:02:09.584Z,50.79
2018-11-12T03:03:09.548Z,50.96
2018-11-12T03:04:09.530Z,50.46
2018-11-12T03:05:09.526Z,51.29
2018-11-12T03:06:09.548Z,51.26
2018-11-12T03:07:09.505Z,50.96
2018-11-12T03:08:09.484Z,51.37
2018-11-12T03:09:09.488Z,51.09
2018-11-12T03:10:09.473Z,50.96
2018-11-12T03:11:09.450Z,51.26
2018-11-12T03:12:09.446Z,51.17
2018-11-12T03:13:09.427Z,51.09
2018-11-12T03:14:09.416Z,51.49
2018-11-12T03:15:09.464Z,51.69
2018-11-12T03:16:09.420Z,51.67
2018-11-12T03:17:09.389Z,51.17
2018-11-12T03:18:09.383Z,51.06
2018-11-12T03:19:09.360Z,51.06
2018-11-12T03:20:09.347Z,51.19
2018-11-12T03:21:09.337Z,51.19
2018-11-12T03:22:09.365Z,50.99
2018-11-12T03:23:09.314Z,50.99
2018-11-12T03:24:09.302Z,51.29
2018-11-12T03:25:09.291Z,51.29
2018-11-12T03:26:09.281Z,51.06
2018-11-12T03:27:09.277Z,50.96
2018-11-12T03:28:09.279Z,51.06
2018-11-12T03:29:09.254Z,51.17
2018-11-12T03:30:09.274Z,51.26
2018-11-12T03:31:09.330Z,51.37
2018-11-12T03:32:09.238Z,51.26
2018-11-12T03:33:09.214Z,51.69
2018-11-12T03:34:09.195Z,51.17
2018-11-12T03:35:09.202Z,51.26
2018-11-12T03:36:09.166Z,51.39
2018-11-12T03:37:09.168Z,51.29
2018-11-12T03:38:09.146Z,51.49
2018-11-12T03:39:09.142Z,51.26
2018-11-12T03:40:09.133Z,51.59
2018-11-12T03:41:09.111Z,51.59
2018-11-12T03:42:09.122Z,51.89
2018-11-12T03:43:09.096Z,51.59
2018-11-12T03:44:09.092Z,51.79
2018-11-12T03:45:09.069Z,51.89
2018-11-12T03:46:09.081Z,51.29
2018-11-12T03:47:09.069Z,51.39
2018-11-12T03:48:09.054Z,51.56
2018-11-12T03:49:09.028Z,51.56
2018-11-12T03:50:09.018Z,51.76
2018-11-12T03:51:09.012Z,51.37
2018-11-12T03:52:09.023Z,51.37
2018-11-12T03:53:08.982Z,51.59
2018-11-12T03:54:08.995Z,51.56
2018-11-12T03:55:08.966Z,51.79
2018-11-12T03:56:08.941Z,51.56
2018-11-12T03:57:08.937Z,51.79
2018-11-12T03:58:08.947Z,51.79
2018-11-12T03:59:08.921Z,51.89
2018-11-12T04:00:08.949Z,51.69
2018-11-12T04:01:08.954Z,52.07
2018-11-12T04:02:08.872Z,51.89
2018-11-12T04:03:08.872Z,51.69
2018-11-12T04:04:08.858Z,51.69
2018-11-12T04:05:08.849Z,51.69
2018-11-12T04:06:08.849Z,51.76
2018-11-12T04:07:08.819Z,51.89
2018-11-12T04:08:08.815Z,52.09
2018-11-12T04:09:08.795Z,51.56
2018-11-12T04:10:08.790Z,51.46
2018-11-12T04:11:08.770Z,51.67
2018-11-12T04:12:08.774Z,51.76
2018-11-12T04:13:08.775Z,51.67
2018-11-12T04:14:08.742Z,51.89
2018-11-12T04:15:08.728Z,51.97
2018-11-12T04:16:08.714Z,51.97
2018-11-12T04:17:08.705Z,51.97
2018-11-12T04:18:08.706Z,52.07
2018-11-12T04:19:08.687Z,51.97
2018-11-12T04:20:08.679Z,51.87
2018-11-12T04:21:08.661Z,52.26
2018-11-12T04:22:08.646Z,51.67
2018-11-12T04:23:08.651Z,51.76
2018-11-12T04:24:08.629Z,51.76
2018-11-12T04:25:08.622Z,51.67
2018-11-12T04:26:08.607Z,52.26
2018-11-12T04:27:08.591Z,51.76
2018-11-12T04:28:08.600Z,51.97
2018-11-12T04:29:08.579Z,52.17
2018-11-12T04:30:08.571Z,51.87
2018-11-12T04:31:08.585Z,52.07
2018-11-12T04:32:08.540Z,51.99
2018-11-12T04:33:08.543Z,52.17
2018-11-12T04:34:08.529Z,52.07
2018-11-12T04:35:08.514Z,51.97
2018-11-12T04:36:08.511Z,51.97
2018-11-12T04:37:08.477Z,51.76
2018-11-12T04:38:08.489Z,51.67
2018-11-12T04:39:08.455Z,51.67
2018-11-12T04:40:08.443Z,51.76
2018-11-12T04:41:08.443Z,51.67
2018-11-12T04:42:08.436Z,51.76
2018-11-12T04:43:08.460Z,51.67
2018-11-12T04:44:08.410Z,51.97
2018-11-12T04:45:08.386Z,51.87
2018-11-12T04:46:08.428Z,51.67
2018-11-12T04:47:08.387Z,51.67
2018-11-12T04:48:08.384Z,51.97
2018-11-12T04:49:08.342Z,52.07
2018-11-12T04:50:08.363Z,51.76
2018-11-12T04:51:08.322Z,51.67
2018-11-12T04:52:08.332Z,52.17
2018-11-12T04:53:08.331Z,51.89
2018-11-12T04:54:08.297Z,52.07
2018-11-12T04:55:08.439Z,51.97
2018-11-12T04:56:08.275Z,51.87
2018-11-12T04:57:08.265Z,51.89
2018-11-12T04:58:08.239Z,51.79
2018-11-12T04:59:08.250Z,51.89
2018-11-12T05:00:08.224Z,51.87
2018-11-12T05:01:08.228Z,51.79
2018-11-12T05:02:08.305Z,51.76
2018-11-12T05:03:08.196Z,51.79
2018-11-12T05:04:08.183Z,51.69
2018-11-12T05:05:08.168Z,51.79
2018-11-12T05:06:08.168Z,51.67
2018-11-12T05:07:08.138Z,51.76
2018-11-12T05:08:08.129Z,51.76
2018-11-12T05:09:08.136Z,51.79
2018-11-12T05:10:08.119Z,51.76
2018-11-12T05:11:08.112Z,51.76
2018-11-12T05:12:08.104Z,51.89
2018-11-12T05:13:08.091Z,51.87
2018-11-12T05:14:08.079Z,51.87
2018-11-12T05:15:08.046Z,51.79
2018-11-12T05:16:08.049Z,51.87
2018-11-12T05:17:08.042Z,51.87
2018-11-12T05:18:08.050Z,51.76
2018-11-12T05:19:08.013Z,51.76
2018-11-12T05:20:07.993Z,51.76
2018-11-12T05:21:07.987Z,51.87
2018-11-12T05:22:07.978Z,51.76
2018-11-12T05:23:07.963Z,51.87
2018-11-12T05:24:07.988Z,51.76
2018-11-12T05:25:07.933Z,51.76
2018-11-12T05:26:07.937Z,51.76
2018-11-12T05:27:07.914Z,51.76
2018-11-12T05:28:07.901Z,51.87
2018-11-12T05:29:07.904Z,51.79
2018-11-12T05:30:07.890Z,51.76
2018-11-12T05:31:07.975Z,51.97
2018-11-12T05:32:07.871Z,51.76
2018-11-12T05:33:07.860Z,51.67
2018-11-12T05:34:07.841Z,51.79
2018-11-12T05:35:07.864Z,51.76
2018-11-12T05:36:07.863Z,51.67
2018-11-12T05:37:07.812Z,51.69
2018-11-12T05:38:07.815Z,51.79
2018-11-12T05:39:07.821Z,51.69
2018-11-12T05:40:07.791Z,51.67
2018-11-12T05:41:07.754Z,51.79
2018-11-12T05:42:07.744Z,51.67
2018-11-12T05:43:07.743Z,51.67
2018-11-12T05:44:07.732Z,51.56
2018-11-12T05:45:07.737Z,51.76
2018-11-12T05:46:07.700Z,51.67
2018-11-12T05:47:07.685Z,51.67
2018-11-12T05:48:07.674Z,51.67
2018-11-12T05:49:07.663Z,51.67
2018-11-12T05:50:07.670Z,51.76
2018-11-12T05:51:07.670Z,51.76
2018-11-12T05:52:07.636Z,51.56
2018-11-12T05:53:07.617Z,51.76
2018-11-12T05:54:07.616Z,51.67
2018-11-12T05:55:07.615Z,51.76
2018-11-12T05:56:07.594Z,51.76
2018-11-12T05:57:07.582Z,51.56
2018-11-12T05:58:07.619Z,51.76
2018-11-12T05:59:07.681Z,51.56
2018-11-12T06:00:07.546Z,51.76
2018-11-12T06:01:07.592Z,51.46
2018-11-12T06:02:07.525Z,51.76
2018-11-12T06:03:07.542Z,51.76
2018-11-12T06:04:07.496Z,51.67
2018-11-12T06:05:07.501Z,51.67
2018-11-12T06:06:07.482Z,51.76
2018-11-12T06:07:07.471Z,51.76
2018-11-12T06:08:07.469Z,51.67
2018-11-12T06:09:07.452Z,51.56
2018-11-12T06:10:07.447Z,51.56
2018-11-12T06:11:07.420Z,51.87
2018-11-12T06:12:07.410Z,51.76
2018-11-12T06:13:07.454Z,51.76
2018-11-12T06:14:07.397Z,51.76
2018-11-12T06:15:07.373Z,51.76
2018-11-12T06:16:07.357Z,51.76
2018-11-12T06:17:07.351Z,51.87
2018-11-12T06:18:07.375Z,51.87
2018-11-12T06:19:07.346Z,51.67
2018-11-12T06:20:07.328Z,51.76
2018-11-12T06:21:07.333Z,51.87
2018-11-12T06:22:07.289Z,51.97
2018-11-12T06:23:07.279Z,51.37
2018-11-12T06:24:07.285Z,52.17
2018-11-12T06:25:07.265Z,52.17
2018-11-12T06:26:07.250Z,52.17
2018-11-12T06:27:07.236Z,51.97
2018-11-12T06:28:07.220Z,52.17
2018-11-12T06:29:07.219Z,51.97
2018-11-12T06:30:07.218Z,51.46
2018-11-12T06:31:07.294Z,52.07
2018-11-12T06:32:07.180Z,51.56
2018-11-12T06:33:07.164Z,52.07
2018-11-12T06:34:07.152Z,51.37
2018-11-12T06:35:07.142Z,51.56
2018-11-12T06:36:07.153Z,51.67
2018-11-12T06:37:07.126Z,51.67
2018-11-12T06:38:07.107Z,51.76
2018-11-12T06:39:07.100Z,51.76
2018-11-12T06:40:07.085Z,51.67
2018-11-12T06:41:07.081Z,51.64
2018-11-12T06:42:07.080Z,51.76
2018-11-12T06:43:07.108Z,51.84
2018-11-12T06:44:07.064Z,51.67
2018-11-12T06:45:07.029Z,51.67
2018-11-12T06:46:07.025Z,51.67
2018-11-12T06:47:07.006Z,51.67
2018-11-12T06:48:07.005Z,51.74
2018-11-12T06:49:06.985Z,51.67
2018-11-12T06:50:06.985Z,51.76
2018-11-12T06:51:07.011Z,51.67
2018-11-12T06:52:06.965Z,51.74
2018-11-12T06:53:07.069Z,51.67
2018-11-12T06:54:06.926Z,51.67
2018-11-12T06:55:06.953Z,51.76
2018-11-12T06:56:06.963Z,51.67
2018-11-12T06:57:06.995Z,51.64
2018-11-12T06:58:07.901Z,51.74
2018-11-12T06:59:06.871Z,51.64
2018-11-12T07:00:06.859Z,51.64
2018-11-12T07:01:07.020Z,51.64
2018-11-12T07:02:06.845Z,51.64
2018-11-12T07:03:06.825Z,51.64
2018-11-12T07:04:06.830Z,51.74
2018-11-12T07:05:06.822Z,51.74
2018-11-12T07:06:06.797Z,51.84
2018-11-12T07:07:06.849Z,52.14
2018-11-12T07:08:06.769Z,52.04
2018-11-12T07:09:06.757Z,51.74
2018-11-12T07:10:06.752Z,51.74
2018-11-12T07:11:06.759Z,51.94
2018-11-12T07:12:06.722Z,52.14
2018-11-12T07:13:06.775Z,51.94
2018-11-12T07:14:06.700Z,51.94
2018-11-12T07:15:06.689Z,51.92
2018-11-12T07:16:06.688Z,52.22
2018-11-12T07:17:06.748Z,51.72
2018-11-12T07:18:06.675Z,51.94
2018-11-12T07:19:06.653Z,51.92
2018-11-12T07:20:06.636Z,51.92
2018-11-12T07:21:06.636Z,51.72
2018-11-12T07:22:06.615Z,51.51
2018-11-12T07:23:06.611Z,51.51
2018-11-12T07:24:06.599Z,51.82
2018-11-12T07:25:06.643Z,51.72
2018-11-12T07:26:06.571Z,51.62
2018-11-12T07:27:06.563Z,51.21
2018-11-12T07:28:06.558Z,51.62
2018-11-12T07:29:06.547Z,51.82
2018-11-12T07:30:06.521Z,51.82
2018-11-12T07:31:06.612Z,51.82
2018-11-12T07:32:06.497Z,51.72
2018-11-12T07:33:06.487Z,51.72
2018-11-12T07:34:06.499Z,52.01
2018-11-12T07:35:06.479Z,51.72
2018-11-12T07:36:06.474Z,51.99
2018-11-12T07:37:06.462Z,51.72
2018-11-12T07:38:06.428Z,51.62
2018-11-12T07:39:06.417Z,51.51
2018-11-12T07:40:06.407Z,51.59
2018-11-12T07:41:06.395Z,51.42
2018-11-12T07:42:06.489Z,51.29
2018-11-12T07:43:06.389Z,51.19
2018-11-12T07:44:06.377Z,51.19
2018-11-12T07:45:06.359Z,51.19
2018-11-12T07:46:06.412Z,50.99
2018-11-12T07:47:06.345Z,50.89
2018-11-12T07:48:06.316Z,51.49
2018-11-12T07:49:06.316Z,51.49
2018-11-12T07:50:06.304Z,51.29
2018-11-12T07:51:06.360Z,51.59
2018-11-12T07:52:06.276Z,51.29
2018-11-12T07:53:06.263Z,51.39
2018-11-12T07:54:06.260Z,51.19
2018-11-12T07:55:06.248Z,51.19
2018-11-12T07:56:06.300Z,51.49
2018-11-12T07:57:06.224Z,50.99
2018-11-12T07:58:06.203Z,50.99
2018-11-12T07:59:06.192Z,51.19
2018-11-12T08:00:06.181Z,51.09
2018-11-12T08:01:06.211Z,51.69
2018-11-12T08:02:06.166Z,50.99
2018-11-12T08:03:06.352Z,51.09
2018-11-12T08:04:06.161Z,51.59
2018-11-12T08:05:06.126Z,51.09
2018-11-12T08:06:06.126Z,51.69
2018-11-12T08:07:06.105Z,51.19
2018-11-12T08:08:06.093Z,51.29
2018-11-12T08:09:06.136Z,51.19
2018-11-12T08:10:06.081Z,50.89
2018-11-12T08:11:06.062Z,51.09
2018-11-12T08:12:06.152Z,51.19
2018-11-12T08:13:06.058Z,51.09
2018-11-12T08:14:06.022Z,50.99
2018-11-12T08:15:06.011Z,51.59
2018-11-12T08:16:06.030Z,51.09
2018-11-12T08:17:06.006Z,51.09
2018-11-12T08:18:05.980Z,50.89
2018-11-12T08:19:05.969Z,51.27
2018-11-12T08:20:05.955Z,51.57
2018-11-12T08:21:05.949Z,50.99
2018-11-12T08:22:05.949Z,51.19
2018-11-12T08:23:05.920Z,51.37
2018-11-12T08:24:06.012Z,51.17
2018-11-12T08:25:05.902Z,51.67
2018-11-12T08:26:05.905Z,51.67
2018-11-12T08:27:05.919Z,51.25
2018-11-12T08:28:05.884Z,51.07
2018-11-12T08:29:05.874Z,51.27
2018-11-12T08:30:05.906Z,50.87
2018-11-12T08:31:05.945Z,51.67
2018-11-12T08:32:05.842Z,51.87
2018-11-12T08:33:05.899Z,51.46
2018-11-12T08:34:05.813Z,51.57
2018-11-12T08:35:05.798Z,51.46
2018-11-12T08:36:05.807Z,51.27
2018-11-12T08:37:05.773Z,50.74
2018-11-12T08:38:05.756Z,50.74
2018-11-12T08:39:05.828Z,50.54
2018-11-12T08:40:05.984Z,50.84
2018-11-12T08:41:05.783Z,51.04
2018-11-12T08:42:05.720Z,51.04
2018-11-12T08:43:05.695Z,50.44
2018-11-12T08:44:05.703Z,50.22
2018-11-12T08:45:05.677Z,49.29
2018-11-12T08:46:05.677Z,48.85
2018-11-12T08:47:05.664Z,46.06
2018-11-12T08:48:05.640Z,45.42
2018-11-12T08:49:05.657Z,44.70
2018-11-12T08:50:05.700Z,43.98
2018-11-12T08:51:05.605Z,44.20
2018-11-12T08:52:05.674Z,43.15
2018-11-12T08:53:05.583Z,42.61
2018-11-12T08:54:05.572Z,41.97
2018-11-12T08:55:05.648Z,41.60
2018-11-12T08:56:05.551Z,40.44
2018-11-12T08:57:05.538Z,39.73
2018-11-12T08:58:05.597Z,38.31
2018-11-12T08:59:05.598Z,38.98
2018-11-12T09:00:05.505Z,37.99
2018-11-12T09:01:05.564Z,37.99
2018-11-12T09:02:05.482Z,38.21
2018-11-12T09:03:05.478Z,40.55
2018-11-12T09:04:05.565Z,40.17
2018-11-12T09:05:05.449Z,40.12
2018-11-12T09:06:05.530Z,39.42
2018-11-12T09:07:05.448Z,38.60
2018-11-12T09:08:05.422Z,39.31
2018-11-12T09:09:05.405Z,40.34
2018-11-12T09:10:05.460Z,40.38
2018-11-12T09:11:05.384Z,41.77
2018-11-12T09:12:05.379Z,41.08
2018-11-12T09:13:05.387Z,41.38
2018-11-12T09:14:05.357Z,40.44
2018-11-12T09:15:05.340Z,39.83
2018-11-12T09:16:05.333Z,40.01
2018-11-12T09:17:05.322Z,38.90
2018-11-12T09:18:05.313Z,38.76
2018-11-12T09:19:05.308Z,38.29
2018-11-12T09:20:05.279Z,39.61
2018-11-12T09:21:05.289Z,40.74
2018-11-12T09:22:05.256Z,41.17
2018-11-12T09:23:05.269Z,42.09
2018-11-12T09:24:05.279Z,42.71
2018-11-12T09:25:05.225Z,42.53
2018-11-12T09:26:05.214Z,42.93
2018-11-12T09:27:05.203Z,43.24
2018-11-12T09:28:05.188Z,43.35
2018-11-12T09:29:05.203Z,43.15
2018-11-12T09:30:05.166Z,43.10
2018-11-12T09:31:06.511Z,42.49
2018-11-12T09:32:05.143Z,42.69
2018-11-12T09:33:05.132Z,42.07
2018-11-12T09:34:05.131Z,41.36
2018-11-12T09:35:05.111Z,41.14
2018-11-12T09:36:05.111Z,40.41
2018-11-12T09:37:05.113Z,38.47
2018-11-12T09:38:05.160Z,38.57
2018-11-12T09:39:05.087Z,37.64
2018-11-12T09:40:05.074Z,38.86
2018-11-12T09:41:05.039Z,39.81
2018-11-12T09:42:05.040Z,41.44
2018-11-12T09:43:05.071Z,41.46
2018-11-12T09:44:05.022Z,42.19
2018-11-12T09:45:04.995Z,42.39
2018-11-12T09:46:05.039Z,42.57
2018-11-12T09:47:04.990Z,42.69
2018-11-12T09:48:04.969Z,42.31
2018-11-12T09:49:05.020Z,43.20
2018-11-12T09:50:04.938Z,42.61
2018-11-12T09:51:04.929Z,42.05
2018-11-12T09:52:04.929Z,39.87
2018-11-12T09:53:04.922Z,38.21
2018-11-12T09:54:04.953Z,36.11
2018-11-12T09:55:04.882Z,36.09
2018-11-12T09:56:04.870Z,35.46
2018-11-12T09:57:04.859Z,35.15
2018-11-12T09:58:04.858Z,34.94
2018-11-12T09:59:04.868Z,34.33
2018-11-12T10:00:04.860Z,33.44
2018-11-12T10:01:04.994Z,33.62
2018-11-12T10:02:05.536Z,34.51
2018-11-12T10:03:05.932Z,34.01
2018-11-12T10:04:05.545Z,33.61
2018-11-12T10:05:06.199Z,32.90
2018-11-12T10:06:06.063Z,33.28
2018-11-12T10:07:06.634Z,32.59
2018-11-12T10:08:06.911Z,33.89
2018-11-12T10:09:06.248Z,32.81
2018-11-12T10:10:07.829Z,33.91
2018-11-12T10:11:07.755Z,33.59
2018-11-12T10:12:07.380Z,32.98
2018-11-12T10:13:08.032Z,32.50
2018-11-12T10:14:07.390Z,33.48
2018-11-12T10:15:07.740Z,33.98
2018-11-12T10:16:07.739Z,33.43
2018-11-12T10:17:06.866Z,34.74
2018-11-12T10:18:07.355Z,35.03
2018-11-12T10:19:04.682Z,34.10
2018-11-12T10:20:04.629Z,33.62
2018-11-12T10:21:04.599Z,33.89
2018-11-12T10:22:04.593Z,35.13
2018-11-12T10:23:04.586Z,36.05
2018-11-12T10:24:04.572Z,34.74
2018-11-12T10:25:04.572Z,35.23
2018-11-12T10:26:04.558Z,35.53
2018-11-12T10:27:04.564Z,34.94
2018-11-12T10:28:04.615Z,35.21
2018-11-12T10:29:04.603Z,35.36
2018-11-12T10:30:04.519Z,36.38
2018-11-12T10:31:04.562Z,37.21
2018-11-12T10:32:04.478Z,37.62
2018-11-12T10:33:04.476Z,36.70
2018-11-12T10:34:04.498Z,35.88
2018-11-12T10:35:04.532Z,34.84
2018-11-12T10:36:04.443Z,34.61
2018-11-12T10:37:04.431Z,33.80
2018-11-12T10:38:04.406Z,33.80
2018-11-12T10:39:04.416Z,33.49
2018-11-12T10:40:04.387Z,34.06
2018-11-12T10:41:04.407Z,33.56
2018-11-12T10:42:04.369Z,33.84
2018-11-12T10:43:04.351Z,33.64
2018-11-12T10:44:04.345Z,32.48
2018-11-12T10:45:04.348Z,32.66
2018-11-12T10:46:04.321Z,33.54
2018-11-12T10:47:04.309Z,32.68
2018-11-12T10:48:04.407Z,33.97
2018-11-12T10:49:04.289Z,33.61
2018-11-12T10:50:04.301Z,35.31
2018-11-12T10:51:05.251Z,36.25
2018-11-12T10:52:04.248Z,37.37
2018-11-12T10:53:04.239Z,37.70
2018-11-12T10:54:04.392Z,36.45
2018-11-12T10:55:05.365Z,36.84
2018-11-12T10:56:04.341Z,35.43
2018-11-12T10:57:04.203Z,35.13
2018-11-12T10:58:04.200Z,35.64
2018-11-12T10:59:04.181Z,35.86
2018-11-12T11:00:04.160Z,36.78
2018-11-12T11:01:04.194Z,37.92
2018-11-12T11:02:04.141Z,38.63
2018-11-12T11:03:04.135Z,40.34
2018-11-12T11:04:04.141Z,40.25
2018-11-12T11:05:04.103Z,40.07
2018-11-12T11:06:04.107Z,41.08
2018-11-12T11:07:04.097Z,41.60
2018-11-12T11:08:04.123Z,41.60
2018-11-12T11:09:04.084Z,42.41
2018-11-12T11:10:04.049Z,41.89
2018-11-12T11:11:04.038Z,42.19
2018-11-12T11:12:04.048Z,42.50
2018-11-12T11:13:04.032Z,42.01
2018-11-12T11:14:04.018Z,42.33
2018-11-12T11:15:04.008Z,42.82
2018-11-12T11:16:04.001Z,42.82
2018-11-12T11:17:03.982Z,42.72
2018-11-12T11:18:03.969Z,43.24
2018-11-12T11:19:03.973Z,42.45
2018-11-12T11:20:03.951Z,42.55
2018-11-12T11:21:03.973Z,43.24
2018-11-12T11:22:03.926Z,43.16
2018-11-12T11:23:03.915Z,42.55
2018-11-12T11:24:03.896Z,42.31
2018-11-12T11:25:03.893Z,40.76
2018-11-12T11:26:03.887Z,39.22
2018-11-12T11:27:03.874Z,38.59
2018-11-12T11:28:03.858Z,37.35
2018-11-12T11:29:03.855Z,36.94
2018-11-12T11:30:03.848Z,35.88
2018-11-12T11:31:03.848Z,36.36
2018-11-12T11:32:03.821Z,36.07
2018-11-12T11:33:03.798Z,36.58
2018-11-12T11:34:03.803Z,37.57
2018-11-12T11:35:03.785Z,36.76
2018-11-12T11:36:03.775Z,35.84
2018-11-12T11:37:03.761Z,35.03
2018-11-12T11:38:03.781Z,34.74
2018-11-12T11:39:03.741Z,34.22
2018-11-12T11:40:03.814Z,34.31
2018-11-12T11:41:03.737Z,34.41
2018-11-12T11:42:03.700Z,34.00
2018-11-12T11:43:03.686Z,34.51
2018-11-12T11:44:03.720Z,35.77
2018-11-12T11:45:03.706Z,36.91
2018-11-12T11:46:03.672Z,38.73
2018-11-12T11:47:03.655Z,39.26
2018-11-12T11:48:03.746Z,40.07
2018-11-12T11:49:03.659Z,40.68
2018-11-12T11:50:03.685Z,40.03
2018-11-12T11:51:03.602Z,37.29
2018-11-12T11:52:03.590Z,35.86
2018-11-12T11:53:03.584Z,35.64
2018-11-12T11:54:03.572Z,34.82
2018-11-12T11:55:03.575Z,33.80
2018-11-12T11:56:03.548Z,33.97
2018-11-12T11:57:03.634Z,33.07
2018-11-12T11:58:03.577Z,32.68
2018-11-12T11:59:03.518Z,32.86
2018-11-12T12:00:03.516Z,32.86
2018-11-12T12:01:03.647Z,32.95
2018-11-12T12:02:03.528Z,32.25
2018-11-12T12:03:03.555Z,32.45
2018-11-12T12:04:03.462Z,32.84
2018-11-12T12:05:03.453Z,32.74
2018-11-12T12:06:03.436Z,33.56
2018-11-12T12:07:03.428Z,33.97
2018-11-12T12:08:03.408Z,33.67
2018-11-12T12:09:03.507Z,33.80
2018-11-12T12:10:03.417Z,33.89
2018-11-12T12:11:03.380Z,32.98
2018-11-12T12:12:03.376Z,33.39
2018-11-12T12:13:03.353Z,35.00
2018-11-12T12:14:03.390Z,35.35
2018-11-12T12:15:03.347Z,36.38
2018-11-12T12:16:03.328Z,37.41
2018-11-12T12:17:03.310Z,38.02
2018-11-12T12:18:03.349Z,38.63
2018-11-12T12:19:03.303Z,37.92
2018-11-12T12:20:03.297Z,38.63
2018-11-12T12:21:03.294Z,37.94
2018-11-12T12:22:03.262Z,38.23
2018-11-12T12:23:03.268Z,38.57
2018-11-12T12:24:03.243Z,39.87
2018-11-12T12:25:03.298Z,40.80
2018-11-12T12:26:03.306Z,41.22
2018-11-12T12:27:03.196Z,41.12
2018-11-12T12:28:03.206Z,41.24
2018-11-12T12:29:03.179Z,42.23
2018-11-12T12:30:03.174Z,42.25
2018-11-12T12:31:03.199Z,42.35
2018-11-12T12:32:03.141Z,42.37
2018-11-12T12:33:03.140Z,42.27
2018-11-12T12:34:03.195Z,43.06
2018-11-12T12:35:03.130Z,42.57
2018-11-12T12:36:03.250Z,42.47
2018-11-12T12:37:03.085Z,42.09
2018-11-12T12:38:03.268Z,43.58
2018-11-12T12:39:03.062Z,43.56
2018-11-12T12:40:03.060Z,43.16
2018-11-12T12:41:03.063Z,43.66
2018-11-12T12:42:03.029Z,43.56
2018-11-12T12:43:03.029Z,43.16
2018-11-12T12:44:03.019Z,43.68
2018-11-12T12:45:03.230Z,43.88
2018-11-12T12:46:03.074Z,43.88
2018-11-12T12:47:02.974Z,43.60
2018-11-12T12:48:02.971Z,44.20
2018-11-12T12:49:02.952Z,44.20
2018-11-12T12:50:02.940Z,43.90
2018-11-12T12:51:02.936Z,43.80
2018-11-12T12:52:02.946Z,43.90